createdAt,value
2022-08-07T00:02:41.500Z,1.92
2022-08-07T00:06:51.532Z,1.60
2022-08-07T00:10:57.559Z,1.60
2022-08-07T00:15:01.830Z,1.90
2022-08-07T00:19:05.662Z,1.67
2022-08-07T00:23:09.008Z,1.60
2022-08-07T00:27:13.593Z,1.67
2022-08-07T00:31:19.034Z,1.42
2022-08-07T00:35:23.032Z,1.77
2022-08-07T00:39:26.538Z,1.60
2022-08-07T00:44:01.617Z,1.63
2022-08-07T00:48:09.587Z,1.52
2022-08-07T00:52:14.509Z,1.70
2022-08-07T00:56:20.900Z,1.80
2022-08-07T01:00:26.119Z,1.60
2022-08-07T01:04:30.325Z,1.45
2022-08-07T01:08:36.072Z,1.60
2022-08-07T01:12:53.949Z,1.67
2022-08-07T01:17:04.186Z,1.65
2022-08-07T01:21:22.855Z,1.80
2022-08-07T01:25:53.830Z,1.90
2022-08-07T01:29:56.029Z,1.48
2022-08-07T01:34:00.188Z,1.60
2022-08-07T01:38:10.900Z,1.45
2022-08-07T01:42:38.748Z,1.48
2022-08-07T01:46:41.856Z,1.58
2022-08-07T01:50:50.389Z,1.58
2022-08-07T01:54:58.994Z,1.30
2022-08-07T01:59:09.167Z,1.40
2022-08-07T02:03:31.986Z,1.73
2022-08-07T02:07:51.789Z,1.50
2022-08-07T02:12:17.697Z,1.40
2022-08-07T02:16:28.726Z,1.63
2022-08-07T02:20:38.158Z,1.58
2022-08-07T02:24:46.605Z,1.55
2022-08-07T02:28:54.408Z,1.50
2022-08-07T02:33:09.282Z,1.35
2022-08-07T02:37:16.677Z,1.60
2022-08-07T02:41:21.690Z,1.50
2022-08-07T02:46:00.180Z,1.67
2022-08-07T02:49:58.806Z,1.30
2022-08-07T02:54:10.617Z,1.40
2022-08-07T02:58:21.999Z,1.42
2022-08-07T03:02:33.840Z,1.35
2022-08-07T03:06:38.969Z,1.80
2022-08-07T03:10:46.730Z,1.33
2022-08-07T03:14:56.344Z,1.40
2022-08-07T03:19:02.184Z,1.70
2022-08-07T03:23:18.911Z,1.33
2022-08-07T03:27:30.120Z,1.50
2022-08-07T03:31:43.443Z,1.60
2022-08-07T03:35:52.553Z,1.48
2022-08-07T03:40:15.309Z,1.55
2022-08-07T03:44:31.911Z,1.70
2022-08-07T03:48:45.557Z,1.50
2022-08-07T03:53:07.508Z,1.45
2022-08-07T03:58:33.840Z,1.85
2022-08-07T04:01:45.221Z,1.50
2022-08-07T04:05:50.689Z,1.60
2022-08-07T04:09:59.687Z,1.60
2022-08-07T04:14:10.159Z,1.38
2022-08-07T04:18:59.573Z,1.52
2022-08-07T04:23:01.301Z,1.60
2022-08-07T04:27:20.757Z,1.90
2022-08-07T04:32:02.160Z,1.30
2022-08-07T04:35:56.148Z,1.48
2022-08-07T04:40:05.211Z,1.60
2022-08-07T04:44:18.243Z,1.73
2022-08-07T04:48:31.535Z,1.52
2022-08-07T04:52:51.113Z,1.60
2022-08-07T04:58:16.823Z,1.70
2022-08-07T05:01:41.648Z,1.80
2022-08-07T05:05:57.145Z,1.50
2022-08-07T05:10:07.813Z,1.50
2022-08-07T05:14:52.898Z,1.40
2022-08-07T05:18:54.060Z,1.60
2022-08-07T05:23:02.772Z,1.60
2022-08-07T05:27:14.461Z,1.58
2022-08-07T05:31:38.513Z,1.50
2022-08-07T05:35:50.737Z,1.27
2022-08-07T05:40:14.188Z,1.55
2022-08-07T05:44:29.342Z,1.48
2022-08-07T05:48:36.600Z,1.40
2022-08-07T05:53:01.565Z,1.38
2022-08-07T05:57:07.314Z,1.42
2022-08-07T06:01:13.320Z,1.60
2022-08-07T06:05:28.137Z,1.40
2022-08-07T06:10:03.774Z,1.52
2022-08-07T06:14:12.924Z,1.60
2022-08-07T06:18:28.033Z,1.50
2022-08-07T06:22:39.044Z,1.40
2022-08-07T06:27:07.948Z,1.10
2022-08-07T06:31:11.918Z,1.58
2022-08-07T06:35:18.090Z,1.40
2022-08-07T06:40:16.246Z,1.52
2022-08-07T06:43:59.417Z,1.50
2022-08-07T06:48:09.405Z,1.45
2022-08-07T06:52:31.727Z,1.50
2022-08-07T06:56:50.715Z,1.40
2022-08-07T07:01:01.285Z,1.33
2022-08-07T07:05:12.602Z,1.40
2022-08-07T07:09:24.260Z,1.60
2022-08-07T07:13:43.614Z,1.45
2022-08-07T07:18:11.203Z,1.35
2022-08-07T07:22:36.117Z,1.40
2022-08-07T07:26:49.672Z,1.52
2022-08-07T07:31:01.500Z,1.70
2022-08-07T07:35:11.315Z,1.25
2022-08-07T07:39:16.494Z,1.73
2022-08-07T07:43:27.700Z,1.55
2022-08-07T07:47:51.961Z,1.58
2022-08-07T07:51:59.884Z,1.63
2022-08-07T07:56:04.250Z,2.00
2022-08-07T08:00:09.523Z,1.50
2022-08-07T08:04:18.478Z,1.60
2022-08-07T08:08:35.037Z,1.60
2022-08-07T08:12:52.279Z,1.30
2022-08-07T08:17:56.389Z,1.50
2022-08-07T08:22:02.587Z,1.50
2022-08-07T08:26:23.395Z,1.50
2022-08-07T08:30:30.219Z,1.50
2022-08-07T08:34:36.762Z,1.60
2022-08-07T08:38:43.160Z,1.40
2022-08-07T08:42:55.823Z,1.52
2022-08-07T08:47:09.815Z,1.52
2022-08-07T08:51:49.552Z,1.63
2022-08-07T08:55:59.243Z,1.70
2022-08-07T09:00:09.054Z,1.77
2022-08-07T09:04:25.953Z,1.60
2022-08-07T09:08:42.144Z,1.80
2022-08-07T09:12:58.303Z,1.50
2022-08-07T09:17:19.121Z,1.63
2022-08-07T09:22:09.747Z,1.70
2022-08-07T09:26:12.636Z,1.60
2022-08-07T09:30:25.447Z,1.50
2022-08-07T09:34:53.909Z,1.60
2022-08-07T09:39:18.260Z,1.80
2022-08-07T09:44:06.247Z,1.77
2022-08-07T09:48:25.151Z,1.67
2022-08-07T09:52:41.903Z,1.50
2022-08-07T09:57:27.992Z,1.48
2022-08-07T10:01:51.692Z,1.60
2022-08-07T10:06:24.526Z,1.40
2022-08-07T10:11:16.402Z,1.48
2022-08-07T10:15:44.528Z,1.80
2022-08-07T10:20:02.061Z,1.60
2022-08-07T10:24:38.142Z,1.63
2022-08-07T10:29:00.019Z,1.50
2022-08-07T10:34:04.999Z,1.70
2022-08-07T10:38:21.245Z,1.55
2022-08-07T10:42:36.383Z,1.40
2022-08-07T10:46:48.883Z,2.15
2022-08-07T10:50:57.302Z,1.30
2022-08-07T10:55:26.619Z,1.40
2022-08-07T10:59:52.972Z,1.42
2022-08-07T11:04:17.030Z,1.40
2022-08-07T11:08:40.830Z,1.60
2022-08-07T11:12:49.725Z,1.65
2022-08-07T11:17:12.214Z,1.40
2022-08-07T11:21:32.092Z,1.35
2022-08-07T11:25:48.198Z,1.40
2022-08-07T11:30:18.709Z,1.58
2022-08-07T11:34:32.435Z,1.50
2022-08-07T11:38:50.629Z,1.40
2022-08-07T11:43:00.874Z,1.60
2022-08-07T11:47:19.032Z,1.65
2022-08-07T11:51:44.692Z,1.52
2022-08-07T11:56:25.335Z,1.52
2022-08-07T12:00:39.301Z,1.58
2022-08-07T12:05:00.981Z,1.15
2022-08-07T12:09:16.476Z,1.50
2022-08-07T12:13:37.102Z,1.48
2022-08-07T12:17:59.432Z,1.50
2022-08-07T12:22:37.310Z,1.50
2022-08-07T12:26:46.238Z,1.67
2022-08-07T12:30:57.305Z,1.40
2022-08-07T12:35:05.599Z,1.52
2022-08-07T12:39:44.830Z,1.60
2022-08-07T12:44:02.703Z,1.50
2022-08-07T12:48:13.187Z,2.00
2022-08-07T12:52:46.106Z,1.90
2022-08-07T12:56:54.882Z,1.67
2022-08-07T13:01:08.057Z,1.48
2022-08-07T13:06:03.742Z,1.83
2022-08-07T13:10:37.627Z,1.55
2022-08-07T13:14:51.152Z,1.58
2022-08-07T13:19:11.473Z,1.60
2022-08-07T13:24:00.788Z,1.65
2022-08-07T13:28:11.704Z,1.60
2022-08-07T13:32:32.691Z,1.50
2022-08-07T13:36:46.315Z,1.58
2022-08-07T13:41:02.445Z,1.60
2022-08-07T13:45:20.851Z,1.90
2022-08-07T13:50:34.507Z,1.60
2022-08-07T13:54:03.626Z,1.17
2022-08-07T13:58:31.430Z,1.50
2022-08-07T14:02:49.154Z,1.42
2022-08-07T14:06:55.797Z,1.40
2022-08-07T14:11:15.470Z,1.48
2022-08-07T14:15:31.752Z,1.40
2022-08-07T14:20:39.814Z,1.30
2022-08-07T14:24:27.655Z,1.30
2022-08-07T14:28:57.479Z,1.67
2022-08-07T14:33:04.663Z,1.45
2022-08-07T14:37:16.667Z,1.60
2022-08-07T14:41:34.108Z,1.50
2022-08-07T14:50:20.634Z,1.63
2022-08-07T14:54:31.324Z,1.27
2022-08-07T14:58:42.631Z,1.83
2022-08-07T15:02:47.494Z,1.40
2022-08-07T15:07:03.227Z,1.73
2022-08-07T15:11:53.317Z,1.55
2022-08-07T15:16:01.064Z,1.55
2022-08-07T15:25:13.686Z,1.88
2022-08-07T15:38:17.443Z,1.80
2022-08-07T15:42:51.891Z,1.75
2022-08-07T15:47:03.565Z,1.85
2022-08-07T15:51:16.941Z,1.60
2022-08-07T15:55:23.220Z,1.90
2022-08-07T15:59:47.874Z,1.60
2022-08-07T16:03:57.312Z,1.67
2022-08-07T16:08:30.207Z,1.80
2022-08-07T16:12:39.110Z,1.63
2022-08-07T16:17:15.416Z,1.60
2022-08-07T16:22:01.322Z,1.65
2022-08-07T16:25:56.704Z,1.80
2022-08-07T16:30:30.995Z,1.77
2022-08-07T16:34:48.193Z,1.85
2022-08-07T16:39:13.273Z,1.90
2022-08-07T16:44:03.929Z,1.83
2022-08-07T16:48:58.430Z,1.90
2022-08-07T16:54:02.532Z,1.70
2022-08-07T16:58:03.691Z,1.73
2022-08-07T17:02:52.476Z,1.80
2022-08-07T17:07:02.894Z,2.22
2022-08-07T17:11:14.273Z,1.92
2022-08-07T17:15:21.962Z,1.70
2022-08-07T17:20:01.548Z,1.80
2022-08-07T17:24:23.622Z,1.60
2022-08-07T17:28:38.244Z,1.75
2022-08-07T17:32:53.725Z,1.80
2022-08-07T17:37:09.818Z,1.65
2022-08-07T17:42:04.580Z,2.00
2022-08-07T17:45:55.575Z,1.80
2022-08-07T17:50:01.436Z,1.77
2022-08-07T17:54:14.958Z,2.05
2022-08-07T17:58:46.342Z,1.98
2022-08-07T18:02:56.730Z,2.30
2022-08-07T18:07:20.095Z,2.40
2022-08-07T18:12:07.938Z,2.50
2022-08-07T18:16:04.708Z,2.60
2022-08-07T18:21:03.433Z,2.63
2022-08-07T18:24:43.259Z,2.50
2022-08-07T18:29:03.925Z,2.95
2022-08-07T18:33:32.613Z,2.60
2022-08-07T18:38:55.183Z,2.50
2022-08-07T18:42:28.806Z,2.70
2022-08-07T18:46:43.110Z,3.10
2022-08-07T18:51:11.637Z,2.50
2022-08-07T18:55:41.845Z,3.00
2022-08-07T19:00:32.877Z,3.05
2022-08-07T19:04:57.668Z,3.20
2022-08-07T19:09:55.388Z,2.95
2022-08-07T19:13:56.467Z,2.80
2022-08-07T19:18:12.991Z,2.60
2022-08-07T19:22:31.334Z,2.90
2022-08-07T19:27:09.121Z,3.05
2022-08-07T19:31:43.626Z,2.92
2022-08-07T19:35:38.499Z,3.40
2022-08-07T19:39:57.590Z,3.00
2022-08-07T19:44:21.275Z,3.03
2022-08-07T19:48:42.130Z,2.78
2022-08-07T19:52:58.353Z,2.60
2022-08-07T19:58:02.300Z,2.88
2022-08-07T20:01:56.246Z,2.50
2022-08-07T20:06:00.558Z,2.45
2022-08-07T20:10:35.702Z,2.85
2022-08-07T20:14:36.631Z,2.80
2022-08-07T20:18:58.771Z,2.58
2022-08-07T20:23:23.172Z,2.50
2022-08-07T20:27:46.247Z,2.58
2022-08-07T20:31:50.849Z,2.78
2022-08-07T20:36:03.408Z,2.72
2022-08-07T20:40:32.165Z,2.90
2022-08-07T20:44:38.699Z,2.95
2022-08-07T20:49:54.636Z,2.80
2022-08-07T20:53:13.491Z,3.05
2022-08-07T20:57:22.119Z,2.90
2022-08-07T21:01:29.710Z,2.90
2022-08-07T21:05:56.354Z,2.72
2022-08-07T21:10:03.235Z,2.78
2022-08-07T21:14:31.640Z,2.75
2022-08-07T21:18:41.011Z,2.88
2022-08-07T21:22:53.483Z,2.70
2022-08-07T21:27:02.044Z,3.03
2022-08-07T21:31:16.247Z,2.70
2022-08-07T21:36:00.207Z,2.90
2022-08-07T21:40:03.682Z,2.90
2022-08-07T21:44:28.436Z,2.50
2022-08-07T21:48:43.859Z,2.42
2022-08-07T21:53:07.776Z,2.58
2022-08-07T21:57:39.652Z,2.83
2022-08-07T22:02:11.024Z,2.45
2022-08-07T22:06:31.005Z,2.45
2022-08-07T22:10:35.744Z,2.72
2022-08-07T22:15:00.115Z,2.35
2022-08-07T22:19:09.564Z,2.70
2022-08-07T22:23:23.615Z,2.53
2022-08-07T22:27:51.220Z,2.33
2022-08-07T22:32:06.397Z,2.75
2022-08-07T22:36:18.592Z,2.50
2022-08-07T22:40:30.785Z,2.22
2022-08-07T22:44:36.884Z,2.60
2022-08-07T22:49:07.761Z,2.60
2022-08-07T22:54:08.089Z,2.15
2022-08-07T22:58:28.106Z,2.22
2022-08-07T23:02:38.575Z,2.40
2022-08-07T23:06:54.921Z,2.45
2022-08-07T23:11:17.167Z,2.25
2022-08-07T23:16:06.726Z,1.92
2022-08-07T23:20:15.051Z,2.17
2022-08-07T23:24:30.027Z,1.90
2022-08-07T23:28:54.462Z,1.98
2022-08-07T23:34:20.671Z,2.03
2022-08-07T23:38:01.685Z,1.98
2022-08-07T23:42:21.877Z,1.95
2022-08-07T23:46:57.661Z,2.03
2022-08-07T23:52:58.300Z,2.13
2022-08-07T23:55:53.168Z,2.22
